Terminal Aerodrome Forecast
Issued by NWS

Home | Current Version | Previous Version | Graphics & Text | Print | Product List | Glossary On
Versions: 1 2 3 4 5 6 7 8 9 10 11 12 13
909
FTUS43 KOAX 302342
TAFCDR
TAF
KCDR 302342Z 0100/0124 30012G20KT P6SM SCT060 BKN090
     FM010100 27007KT P6SM BKN100
     FM010600 27005KT P6SM FEW250
     FM011800 28007KT P6SM SCT100 BKN250=

USA.gov is the U.S. government's official web portal to all federal, state and local government web resources and services.